createdAt,value
2019-04-01T00:01:39.825Z,17.30
2019-04-01T00:04:08.413Z,17.30
2019-04-01T00:06:36.957Z,17.30
2019-04-01T00:09:06.574Z,17.30
2019-04-01T00:11:35.450Z,17.30
2019-04-01T00:14:04.057Z,17.30
2019-04-01T00:16:32.855Z,17.30
2019-04-01T00:19:03.412Z,17.20
2019-04-01T00:21:32.265Z,17.20
2019-04-01T00:24:00.825Z,17.20
2019-04-01T00:26:29.617Z,17.20
2019-04-01T00:28:58.160Z,17.20
2019-04-01T00:31:26.729Z,17.20
2019-04-01T00:33:55.611Z,17.20
2019-04-01T00:36:24.422Z,17.20
2019-04-01T00:38:52.988Z,17.20
2019-04-01T00:41:21.618Z,17.20
2019-04-01T00:43:54.497Z,17.20
2019-04-01T00:46:23.329Z,17.20
2019-04-01T00:48:51.881Z,17.20
2019-04-01T00:51:20.705Z,17.20
2019-04-01T00:53:49.506Z,17.20
2019-04-01T00:56:18.098Z,17.20
2019-04-01T00:58:46.713Z,17.20
2019-04-01T01:01:15.525Z,17.20
2019-04-01T01:03:44.073Z,17.20
2019-04-01T01:06:12.886Z,17.20
2019-04-01T01:08:41.474Z,17.20
2019-04-01T01:11:10.022Z,17.20
2019-04-01T01:13:38.609Z,17.20
2019-04-01T01:16:07.182Z,17.20
2019-04-01T01:18:35.748Z,17.20
2019-04-01T01:21:04.386Z,17.20
2019-04-01T01:23:32.973Z,17.20
2019-04-01T01:26:01.774Z,17.20
2019-04-01T01:28:30.661Z,17.20
2019-04-01T01:30:59.734Z,17.20
2019-04-01T01:33:28.306Z,17.20
2019-04-01T01:35:57.208Z,17.20
2019-04-01T01:38:26.048Z,17.20
2019-04-01T01:40:54.870Z,17.20
2019-04-01T01:43:23.690Z,17.20
2019-04-01T01:45:52.262Z,17.20
2019-04-01T01:48:21.050Z,17.20
2019-04-01T01:50:49.614Z,17.20
2019-04-01T01:53:18.165Z,17.20
2019-04-01T01:55:46.748Z,17.30
2019-04-01T01:58:15.305Z,17.20
2019-04-01T02:00:44.173Z,17.30
2019-04-01T02:03:13.223Z,17.30
2019-04-01T02:05:42.033Z,17.30
2019-04-01T02:08:10.617Z,17.30
2019-04-01T02:10:39.182Z,17.30
2019-04-01T02:13:08.242Z,17.30
2019-04-01T02:15:36.785Z,17.30
2019-04-01T02:18:05.365Z,17.30
2019-04-01T02:20:34.154Z,17.30
2019-04-01T02:23:03.001Z,17.30
2019-04-01T02:25:31.583Z,17.30
2019-04-01T02:28:00.387Z,17.30
2019-04-01T02:30:28.963Z,17.30
2019-04-01T02:32:57.502Z,17.20
2019-04-01T02:35:26.326Z,17.20
2019-04-01T02:37:55.103Z,17.20
2019-04-01T02:40:23.731Z,17.20
2019-04-01T02:42:52.307Z,17.30
2019-04-01T02:45:21.101Z,17.30
2019-04-01T02:47:49.915Z,17.20
2019-04-01T02:50:18.795Z,17.30
2019-04-01T02:52:47.366Z,17.30
2019-04-01T02:55:15.916Z,17.30
2019-04-01T02:57:44.503Z,17.20
2019-04-01T03:00:13.306Z,17.30
2019-04-01T03:02:41.899Z,17.20
2019-04-01T03:05:10.650Z,17.20
2019-04-01T03:07:39.497Z,17.20
2019-04-01T03:10:08.119Z,17.20
2019-04-01T03:12:36.673Z,17.20
2019-04-01T03:15:05.379Z,17.20
2019-04-01T03:17:33.988Z,17.20
2019-04-01T03:20:02.627Z,17.20
2019-04-01T03:22:31.183Z,17.20
2019-04-01T03:24:59.762Z,17.20
2019-04-01T03:27:28.832Z,17.20
2019-04-01T03:29:57.374Z,17.20
2019-04-01T03:32:26.015Z,17.20
2019-04-01T03:34:54.581Z,17.20
2019-04-01T03:37:23.230Z,17.20
2019-04-01T03:39:51.846Z,17.20
2019-04-01T03:42:21.372Z,17.20
2019-04-01T03:44:54.826Z,17.20
2019-04-01T03:47:20.490Z,17.20
2019-04-01T03:49:49.071Z,17.20
2019-04-01T03:52:17.698Z,17.20
2019-04-01T03:54:46.342Z,17.10
2019-04-01T03:57:14.959Z,17.20
2019-04-01T03:59:43.862Z,17.20
2019-04-01T04:02:12.482Z,17.20
2019-04-01T04:04:41.448Z,17.20
2019-04-01T04:07:10.253Z,17.10
2019-04-01T04:09:38.878Z,17.20
2019-04-01T04:12:07.458Z,17.20
2019-04-01T04:14:36.014Z,17.10
2019-04-01T04:17:04.583Z,17.10
2019-04-01T04:19:33.439Z,17.20
2019-04-01T04:22:02.014Z,17.20
2019-04-01T04:24:30.845Z,17.20
2019-04-01T04:26:59.427Z,17.20
2019-04-01T04:29:27.974Z,17.20
2019-04-01T04:34:25.429Z,17.20
2019-04-01T04:36:54.075Z,17.10
2019-04-01T04:39:22.641Z,17.10
2019-04-01T04:41:51.202Z,17.10
2019-04-01T04:44:20.023Z,17.10
2019-04-01T04:46:48.646Z,17.10
2019-04-01T04:49:17.234Z,17.10
2019-04-01T04:51:45.792Z,17.10
2019-04-01T04:54:14.342Z,17.20
2019-04-01T04:56:43.155Z,17.20
2019-04-01T04:59:11.964Z,17.10
2019-04-01T05:01:40.525Z,17.10
2019-04-01T05:04:09.083Z,17.10
2019-04-01T05:06:37.666Z,17.10
2019-04-01T05:09:06.812Z,17.10
2019-04-01T05:11:35.687Z,17.10
2019-04-01T05:14:04.262Z,17.10
2019-04-01T05:16:32.824Z,17.10
2019-04-01T05:19:01.451Z,17.10
2019-04-01T05:21:30.001Z,17.10
2019-04-01T05:23:58.567Z,17.10
2019-04-01T05:26:27.131Z,17.10
2019-04-01T05:28:55.690Z,17.10
2019-04-01T05:31:24.317Z,17.20
2019-04-01T05:33:55.606Z,17.20
2019-04-01T05:36:23.906Z,17.10
2019-04-01T05:38:52.469Z,17.10
2019-04-01T05:41:21.069Z,17.10
2019-04-01T05:43:49.870Z,17.20
2019-04-01T05:46:18.497Z,17.20
2019-04-01T05:48:47.049Z,17.10
2019-04-01T05:51:15.623Z,17.10
2019-04-01T05:53:44.259Z,17.20
2019-04-01T05:56:12.825Z,17.10
2019-04-01T05:58:41.683Z,17.10
2019-04-01T06:01:13.919Z,17.10
2019-04-01T06:03:42.892Z,17.10
2019-04-01T06:06:11.678Z,17.20
2019-04-01T06:08:40.342Z,17.20
2019-04-01T06:11:08.904Z,17.10
2019-04-01T06:13:37.458Z,17.10
2019-04-01T06:16:06.029Z,17.10
2019-04-01T06:18:34.841Z,17.10
2019-04-01T06:21:03.637Z,17.10
2019-04-01T06:23:32.221Z,17.10
2019-04-01T06:26:01.019Z,17.10
2019-04-01T06:28:30.057Z,17.10
2019-04-01T06:30:58.613Z,17.10
2019-04-01T06:33:27.416Z,17.10
2019-04-01T06:35:56.477Z,17.10
2019-04-01T06:38:25.034Z,17.10
2019-04-01T06:40:53.599Z,17.10
2019-04-01T06:43:22.146Z,17.00
2019-04-01T06:45:50.711Z,17.10
2019-04-01T06:48:19.254Z,17.10
2019-04-01T06:50:48.074Z,17.10
2019-04-01T06:53:16.637Z,17.10
2019-04-01T06:55:45.186Z,17.10
2019-04-01T06:58:13.786Z,17.10
2019-04-01T07:00:42.405Z,17.10
2019-04-01T07:03:11.237Z,17.10
2019-04-01T07:05:39.880Z,17.10
2019-04-01T07:08:08.448Z,17.10
2019-04-01T07:10:37.022Z,17.10
2019-04-01T07:13:05.571Z,17.10
2019-04-01T07:15:34.394Z,17.20
2019-04-01T07:18:03.270Z,17.20
2019-04-01T07:20:31.833Z,17.20
2019-04-01T07:23:00.626Z,17.20
2019-04-01T07:25:29.261Z,17.20
2019-04-01T07:27:58.066Z,17.30
2019-04-01T07:30:26.662Z,17.30
2019-04-01T07:32:55.526Z,17.30
2019-04-01T07:35:24.338Z,17.30
2019-04-01T07:37:52.877Z,17.30
2019-04-01T07:40:21.430Z,17.30
2019-04-01T07:42:50.227Z,17.20
2019-04-01T07:45:18.773Z,17.30
2019-04-01T07:47:47.334Z,17.30
2019-04-01T07:50:15.883Z,17.30
2019-04-01T07:52:44.581Z,17.30
2019-04-01T07:55:15.126Z,17.30
2019-04-01T07:57:43.677Z,17.30
2019-04-01T08:00:12.237Z,17.30
2019-04-01T08:02:40.786Z,17.30
2019-04-01T08:05:09.406Z,17.30
2019-04-01T08:07:38.232Z,17.30
2019-04-01T08:10:07.490Z,17.20
2019-04-01T08:12:36.042Z,17.20
2019-04-01T08:15:05.066Z,17.20
2019-04-01T08:17:33.634Z,17.20
2019-04-01T08:20:02.230Z,17.20
2019-04-01T08:22:30.802Z,17.20
2019-04-01T08:24:59.352Z,17.20
2019-04-01T08:27:28.269Z,17.20
2019-04-01T08:29:57.065Z,17.20
2019-04-01T08:32:25.697Z,17.20
2019-04-01T08:34:54.251Z,17.10
2019-04-01T08:37:23.072Z,17.10
2019-04-01T08:39:51.618Z,17.10
2019-04-01T08:42:20.165Z,17.10
2019-04-01T08:44:48.726Z,17.10
2019-04-01T08:47:17.273Z,17.10
2019-04-01T08:49:45.845Z,17.10
2019-04-01T08:52:14.402Z,17.00
2019-04-01T08:54:43.222Z,17.10
2019-04-01T08:57:11.795Z,17.10
2019-04-01T08:59:40.378Z,17.00
2019-04-01T09:02:17.894Z,17.00
2019-04-01T09:04:39.230Z,17.10
2019-04-01T09:07:07.810Z,17.10
2019-04-01T09:09:36.370Z,17.10
2019-04-01T09:12:04.998Z,17.10
2019-04-01T09:14:33.549Z,17.10
2019-04-01T09:17:02.114Z,17.10
2019-04-01T09:19:30.659Z,17.10
2019-04-01T09:21:59.210Z,17.10
2019-04-01T09:24:27.762Z,17.10
2019-04-01T09:26:56.578Z,17.10
2019-04-01T09:29:25.122Z,17.20
2019-04-01T09:31:53.922Z,17.20
2019-04-01T09:34:22.463Z,17.20
2019-04-01T09:36:51.022Z,17.20
2019-04-01T09:39:19.582Z,17.10
2019-04-01T09:41:48.381Z,17.20
2019-04-01T09:44:16.928Z,17.20
2019-04-01T09:46:48.858Z,17.20
2019-04-01T09:49:15.765Z,17.20
2019-04-01T09:51:48.771Z,17.20
2019-04-01T09:54:14.577Z,17.20
2019-04-01T09:56:43.181Z,17.20
2019-04-01T09:59:11.780Z,17.20
2019-04-01T10:01:40.397Z,17.10
2019-04-01T10:04:09.000Z,17.10
2019-04-01T10:06:37.561Z,17.10
2019-04-01T10:09:07.890Z,17.20
2019-04-01T10:11:36.726Z,17.20
2019-04-01T10:14:05.316Z,17.20
2019-04-01T10:16:33.866Z,17.20
2019-04-01T10:19:03.140Z,17.30
2019-04-01T10:21:31.742Z,17.20
2019-04-01T10:24:00.517Z,17.20
2019-04-01T10:26:29.322Z,17.20
2019-04-01T10:28:57.882Z,17.30
2019-04-01T10:31:26.749Z,17.30
2019-04-01T10:33:55.293Z,17.30
2019-04-01T10:36:23.862Z,17.30
2019-04-01T10:38:52.413Z,17.40
2019-04-01T10:41:21.011Z,17.40
2019-04-01T10:43:49.881Z,17.40
2019-04-01T10:46:18.698Z,17.40
2019-04-01T10:48:47.314Z,17.40
2019-04-01T10:51:15.934Z,17.40
2019-04-01T10:53:44.575Z,17.40
2019-04-01T10:56:13.185Z,17.40
2019-04-01T10:58:42.212Z,17.50
2019-04-01T11:01:10.979Z,17.50
2019-04-01T11:03:39.636Z,17.50
2019-04-01T11:06:08.360Z,17.50
2019-04-01T11:08:37.238Z,17.50
2019-04-01T11:11:05.830Z,17.50
2019-04-01T11:13:34.644Z,17.50
2019-04-01T11:16:03.339Z,17.50
2019-04-01T11:18:31.902Z,17.50
2019-04-01T11:21:00.674Z,17.50
2019-04-01T11:23:29.242Z,17.50
2019-04-01T11:25:57.790Z,17.50
2019-04-01T11:28:26.330Z,17.50
2019-04-01T11:30:54.908Z,17.50
2019-04-01T11:33:23.523Z,17.60
2019-04-01T11:35:52.198Z,17.60
2019-04-01T11:38:20.842Z,17.50
2019-04-01T11:40:49.449Z,17.50
2019-04-01T11:43:18.077Z,17.60
2019-04-01T11:45:46.685Z,17.60
2019-04-01T11:48:15.322Z,17.60
2019-04-01T11:50:47.490Z,17.60
2019-04-01T11:53:14.194Z,17.60
2019-04-01T11:55:43.002Z,17.60
2019-04-01T11:58:11.577Z,17.60
2019-04-01T12:00:40.138Z,17.60
2019-04-01T12:03:08.686Z,17.70
2019-04-01T12:05:37.353Z,17.70
2019-04-01T12:08:05.902Z,17.60
2019-04-01T12:10:34.458Z,17.60
2019-04-01T12:13:03.027Z,17.60
2019-04-01T12:15:31.566Z,17.60
2019-04-01T12:18:00.125Z,17.70
2019-04-01T12:20:28.686Z,17.70
2019-04-01T12:22:57.531Z,17.70
2019-04-01T12:25:26.382Z,17.70
2019-04-01T12:27:55.299Z,17.70
2019-04-01T12:30:23.928Z,17.70
2019-04-01T12:32:52.476Z,17.70
2019-04-01T12:35:21.509Z,17.70
2019-04-01T12:37:50.125Z,17.70
2019-04-01T12:40:18.680Z,17.80
2019-04-01T12:42:50.611Z,17.80
2019-04-01T12:45:17.510Z,17.80
2019-04-01T12:47:46.057Z,17.80
2019-04-01T12:50:14.622Z,17.80
2019-04-01T12:52:43.167Z,17.80
2019-04-01T12:55:11.819Z,17.80
2019-04-01T12:57:40.372Z,17.80
2019-04-01T13:00:10.594Z,17.80
2019-04-01T13:02:39.403Z,17.80
2019-04-01T13:05:08.040Z,17.80
2019-04-01T13:07:36.656Z,17.80
2019-04-01T13:10:06.452Z,17.80
2019-04-01T13:12:35.241Z,17.80
2019-04-01T13:15:04.068Z,17.80
2019-04-01T13:17:32.697Z,17.80
2019-04-01T13:20:01.278Z,17.80
2019-04-01T13:22:29.835Z,17.80
2019-04-01T13:24:58.403Z,17.80
2019-04-01T13:27:27.116Z,17.70
2019-04-01T13:29:56.021Z,17.80
2019-04-01T13:32:24.592Z,17.80
2019-04-01T13:34:53.366Z,17.80
2019-04-01T13:37:21.962Z,17.80
2019-04-01T13:39:50.506Z,17.70
2019-04-01T13:42:19.073Z,17.70
2019-04-01T13:44:47.853Z,17.80
2019-04-01T13:47:16.444Z,17.80
2019-04-01T13:49:45.056Z,17.80
2019-04-01T13:52:13.683Z,17.80
2019-04-01T13:54:42.258Z,17.80
2019-04-01T13:57:10.849Z,17.80
2019-04-01T13:59:49.064Z,17.80
2019-04-01T14:02:09.682Z,17.80
2019-04-01T14:04:38.502Z,17.80
2019-04-01T14:07:07.047Z,17.80
2019-04-01T14:09:35.924Z,17.80
2019-04-01T14:12:04.574Z,17.80
2019-04-01T14:14:33.132Z,17.70
2019-04-01T14:17:01.746Z,17.80
2019-04-01T14:19:30.583Z,17.80
2019-04-01T14:21:59.121Z,17.80
2019-04-01T14:24:28.039Z,17.80
2019-04-01T14:26:56.796Z,17.80
2019-04-01T14:29:25.366Z,17.80
2019-04-01T14:31:53.929Z,17.90
2019-04-01T14:34:23.779Z,17.90
2019-04-01T14:36:52.446Z,17.90
2019-04-01T14:39:20.991Z,17.90
2019-04-01T14:41:49.549Z,17.80
2019-04-01T14:44:18.095Z,17.80
2019-04-01T14:46:46.930Z,17.80
2019-04-01T14:49:15.473Z,17.80
2019-04-01T14:51:44.341Z,17.80
2019-04-01T14:54:13.118Z,17.80
2019-04-01T14:56:42.080Z,17.80
2019-04-01T14:59:10.955Z,17.80
2019-04-01T15:01:39.611Z,17.80
2019-04-01T15:04:08.157Z,17.80
2019-04-01T15:06:36.976Z,17.80
2019-04-01T15:09:07.009Z,17.80
2019-04-01T15:11:35.547Z,17.80
2019-04-01T15:14:04.109Z,17.80
2019-04-01T15:16:32.909Z,17.80
2019-04-01T15:19:01.530Z,17.80
2019-04-01T15:21:30.069Z,17.80
2019-04-01T15:23:58.911Z,17.70
2019-04-01T15:26:27.489Z,17.70
2019-04-01T15:28:56.161Z,17.80
2019-04-01T15:31:25.448Z,17.80
2019-04-01T15:33:54.370Z,17.80
2019-04-01T15:36:22.913Z,17.70
2019-04-01T15:38:51.687Z,17.80
2019-04-01T15:41:20.251Z,17.70
2019-04-01T15:43:49.293Z,17.80
2019-04-01T15:46:17.841Z,17.70
2019-04-01T15:48:46.622Z,17.70
2019-04-01T15:51:15.203Z,17.70
2019-04-01T15:53:44.028Z,17.70
2019-04-01T15:56:12.577Z,17.70
2019-04-01T15:58:41.149Z,17.70
2019-04-01T16:01:09.954Z,17.70
2019-04-01T16:03:38.506Z,17.70
2019-04-01T16:06:07.746Z,17.70
2019-04-01T16:08:36.589Z,17.70
2019-04-01T16:11:05.409Z,17.70
2019-04-01T16:13:33.950Z,17.70
2019-04-01T16:16:02.998Z,17.70
2019-04-01T16:18:31.585Z,17.60
2019-04-01T16:21:00.667Z,17.60
2019-04-01T16:23:29.526Z,17.60
2019-04-01T16:25:58.153Z,17.60
2019-04-01T16:28:26.937Z,17.60
2019-04-01T16:30:56.262Z,17.70
2019-04-01T16:33:25.759Z,17.60
2019-04-01T16:35:54.375Z,17.60
2019-04-01T16:38:23.165Z,17.60
2019-04-01T16:40:52.515Z,17.60
2019-04-01T16:43:21.146Z,17.60
2019-04-01T16:45:49.758Z,17.60
2019-04-01T16:48:18.338Z,17.60
2019-04-01T16:50:46.885Z,17.60
2019-04-01T16:53:15.451Z,17.50
2019-04-01T16:55:44.010Z,17.60
2019-04-01T16:58:12.566Z,17.60
2019-04-01T17:00:41.189Z,17.60
2019-04-01T17:03:13.091Z,17.50
2019-04-01T17:05:40.010Z,17.60
2019-04-01T17:08:10.143Z,17.50
2019-04-01T17:10:38.936Z,17.50
2019-04-01T17:13:09.539Z,17.50
2019-04-01T17:15:38.090Z,17.40
2019-04-01T17:18:06.713Z,17.40
2019-04-01T17:20:36.449Z,17.50
2019-04-01T17:23:05.191Z,17.50
2019-04-01T17:25:33.962Z,17.40
2019-04-01T17:28:02.598Z,17.50
2019-04-01T17:30:31.150Z,17.50
2019-04-01T17:32:59.937Z,17.50
2019-04-01T17:35:28.503Z,17.40
2019-04-01T17:37:57.563Z,17.40
2019-04-01T17:40:26.137Z,17.40
2019-04-01T17:42:54.705Z,17.40
2019-04-01T17:45:37.162Z,17.40
2019-04-01T17:48:06.116Z,17.40
2019-04-01T17:50:34.710Z,17.40
2019-04-01T17:53:04.225Z,17.30
2019-04-01T17:55:32.780Z,17.40
2019-04-01T17:58:01.370Z,17.40
2019-04-01T18:00:30.497Z,17.30
2019-04-01T18:02:59.071Z,17.20
2019-04-01T18:05:27.687Z,17.20
2019-04-01T18:07:56.249Z,17.30
2019-04-01T18:10:24.797Z,17.40
2019-04-01T18:12:53.361Z,17.30
2019-04-01T18:15:21.906Z,17.40
2019-04-01T18:17:50.465Z,17.20
2019-04-01T18:20:20.229Z,17.20
2019-04-01T18:22:49.010Z,17.20
2019-04-01T18:25:17.810Z,17.20
2019-04-01T18:27:46.354Z,17.20
2019-04-01T18:30:15.153Z,17.20
2019-04-01T18:32:43.703Z,17.20
2019-04-01T18:35:12.261Z,17.20
2019-04-01T18:37:41.049Z,17.20
2019-04-01T18:40:10.554Z,17.20
2019-04-01T18:42:39.343Z,17.30
2019-04-01T18:45:08.003Z,17.20
2019-04-01T18:47:38.943Z,17.20
2019-04-01T18:50:06.974Z,17.20
2019-04-01T18:52:35.559Z,17.30
2019-04-01T18:55:07.543Z,17.20
2019-04-01T18:57:35.054Z,17.20
2019-04-01T19:00:03.930Z,17.20
2019-04-01T19:02:32.503Z,17.20
2019-04-01T19:05:01.062Z,17.20
2019-04-01T19:07:29.614Z,17.20
2019-04-01T19:10:05.987Z,17.10
2019-04-01T19:12:28.461Z,17.20
2019-04-01T19:14:57.082Z,17.10
2019-04-01T19:17:25.638Z,17.10
2019-04-01T19:19:54.873Z,17.10
2019-04-01T19:22:23.673Z,17.20
2019-04-01T19:24:52.222Z,17.20
2019-04-01T19:27:21.184Z,17.20
2019-04-01T19:29:50.955Z,17.20
2019-04-01T19:32:19.815Z,17.30
2019-04-01T19:34:48.373Z,17.20
2019-04-01T19:37:18.252Z,17.20
2019-04-01T19:39:46.960Z,17.10
2019-04-01T19:42:15.562Z,17.20
2019-04-01T19:44:44.101Z,17.20
2019-04-01T19:47:12.658Z,17.10
2019-04-01T19:49:41.205Z,17.10
2019-04-01T19:52:10.054Z,17.00
2019-04-01T19:54:38.633Z,17.10
2019-04-01T19:57:07.190Z,17.00
2019-04-01T19:59:35.962Z,17.10
2019-04-01T20:02:04.609Z,17.10
2019-04-01T20:04:33.149Z,17.10
2019-04-01T20:07:01.697Z,17.10
2019-04-01T20:09:30.513Z,17.10
2019-04-01T20:11:59.301Z,17.10
2019-04-01T20:14:28.102Z,17.10
2019-04-01T20:16:56.647Z,17.00
2019-04-01T20:19:25.197Z,17.00
2019-04-01T20:21:53.739Z,17.00
2019-04-01T20:24:22.745Z,17.10
2019-04-01T20:26:51.298Z,17.10
2019-04-01T20:29:20.354Z,17.10
2019-04-01T20:31:48.899Z,17.10
2019-04-01T20:34:19.932Z,17.10
2019-04-01T20:36:47.987Z,17.10
2019-04-01T20:39:16.543Z,17.10
2019-04-01T20:41:45.093Z,17.10
2019-04-01T20:44:13.645Z,17.10
2019-04-01T20:46:42.453Z,17.10
2019-04-01T20:49:11.002Z,17.10
2019-04-01T20:51:39.890Z,17.10
2019-04-01T20:54:08.449Z,17.10
2019-04-01T20:56:37.010Z,17.10
2019-04-01T20:59:05.597Z,17.00
2019-04-01T21:01:35.183Z,17.10
2019-04-01T21:04:03.814Z,17.10
2019-04-01T21:06:32.379Z,17.10
2019-04-01T21:09:00.909Z,17.00
2019-04-01T21:11:29.486Z,17.10
2019-04-01T21:13:58.034Z,17.00
2019-04-01T21:16:27.184Z,17.00
2019-04-01T21:18:57.078Z,17.00
2019-04-01T21:21:25.850Z,17.00
2019-04-01T21:23:54.406Z,17.00
2019-04-01T21:26:22.954Z,17.00
2019-04-01T21:28:51.533Z,17.00
2019-04-01T21:31:20.091Z,17.00
2019-04-01T21:33:48.641Z,16.90
2019-04-01T21:36:17.186Z,16.90
2019-04-01T21:38:45.817Z,17.00
2019-04-01T21:41:14.358Z,17.00
2019-04-01T21:43:42.925Z,17.00
2019-04-01T21:46:11.477Z,17.00
2019-04-01T21:48:40.024Z,16.90
2019-04-01T21:51:08.618Z,16.90
2019-04-01T21:53:37.162Z,17.00
2019-04-01T21:56:05.731Z,17.00
2019-04-01T21:58:34.270Z,17.00
2019-04-01T22:01:02.839Z,17.00
2019-04-01T22:03:31.384Z,17.00
2019-04-01T22:06:00.194Z,17.00
2019-04-01T22:08:28.742Z,17.00
2019-04-01T22:10:57.318Z,17.00
2019-04-01T22:13:27.260Z,17.00
2019-04-01T22:15:55.916Z,17.00
2019-04-01T22:18:24.482Z,17.00
2019-04-01T22:20:53.249Z,17.00
2019-04-01T22:23:22.053Z,17.00
2019-04-01T22:25:50.593Z,16.90
2019-04-01T22:28:19.150Z,16.90
2019-04-01T22:30:47.973Z,16.90
2019-04-01T22:33:16.532Z,17.00
2019-04-01T22:35:45.072Z,17.00
2019-04-01T22:38:24.573Z,16.90
2019-04-01T22:40:43.946Z,16.90
2019-04-01T22:43:12.522Z,16.90
2019-04-01T22:45:41.066Z,16.90
2019-04-01T22:48:09.854Z,16.90
2019-04-01T22:50:39.211Z,16.90
2019-04-01T22:53:08.185Z,16.90
2019-04-01T22:55:36.806Z,16.90
2019-04-01T22:58:05.366Z,16.90
2019-04-01T23:00:33.926Z,16.90
2019-04-01T23:03:02.693Z,16.90
2019-04-01T23:05:31.506Z,16.90
2019-04-01T23:08:00.046Z,16.90
2019-04-01T23:10:28.622Z,16.90
2019-04-01T23:12:57.174Z,17.00
2019-04-01T23:15:25.721Z,16.90
2019-04-01T23:17:54.291Z,17.00
2019-04-01T23:20:22.853Z,17.00
2019-04-01T23:22:51.409Z,16.90
2019-04-01T23:25:19.958Z,17.00
2019-04-01T23:27:48.517Z,16.90
2019-04-01T23:30:17.062Z,16.90
2019-04-01T23:32:46.091Z,16.90
2019-04-01T23:35:14.635Z,16.90
2019-04-01T23:37:43.189Z,16.90
2019-04-01T23:40:11.732Z,16.90
2019-04-01T23:42:40.308Z,16.90
2019-04-01T23:45:08.942Z,17.00
2019-04-01T23:47:37.479Z,16.90
2019-04-01T23:50:06.961Z,16.90
2019-04-01T23:52:35.582Z,17.00
2019-04-01T23:55:04.294Z,16.90
2019-04-01T23:57:33.074Z,16.90
